Time;durP1;ratioP1;P1;durP2;ratioP2;P2;SDS_P1;SDS_P2;PMS_P1;PMS_P2;Temp;Humidity;BMP_temperature;BMP_pressure;BME280_temperature;BME280_humidity;BME280_pressure;Samples;Min_cycle;Max_cycle;Signal;HPM_P1;HPM_P2
2022/09/16 00:00:46;;;;;;;12.43;1.00;;;;;;;13.21;100.00;99784.19;5172057;28;20018;-76
2022/09/16 00:03:17;;;;;;;5.65;1.02;;;;;;;13.20;100.00;99782.50;5170916;28;20514;-76
2022/09/16 00:05:50;;;;;;;4.47;1.05;;;;;;;13.23;100.00;99784.94;5173254;28;20175;-76
2022/09/16 00:08:21;;;;;;;4.70;0.98;;;;;;;13.13;100.00;99784.63;5164961;28;20026;-76
2022/09/16 00:10:52;;;;;;;5.25;1.00;;;;;;;13.18;100.00;99784.34;5164331;28;20030;-76
2022/09/16 00:13:22;;;;;;;3.67;1.13;;;;;;;13.25;100.00;99788.31;5162620;28;20033;-76
2022/09/16 00:15:52;;;;;;;4.60;0.88;;;;;;;13.13;100.00;99789.03;5157759;28;20416;-76
2022/09/16 00:18:24;;;;;;;3.22;1.00;;;;;;;12.95;100.00;99795.34;5166063;28;20034;-76
2022/09/16 00:20:54;;;;;;;5.07;0.80;;;;;;;13.10;100.00;99781.34;5164659;28;20034;-76
2022/09/16 00:23:25;;;;;;;3.28;0.80;;;;;;;13.06;100.00;99779.84;5172102;28;20026;-76
2022/09/16 00:25:55;;;;;;;6.43;0.77;;;;;;;13.09;100.00;99782.28;5171750;28;20022;-76
2022/09/16 00:28:25;;;;;;;5.60;0.85;;;;;;;13.02;100.00;99780.91;5169975;28;20537;-76
2022/09/16 00:31:03;;;;;;;3.85;0.80;;;;;;;13.00;100.00;99788.91;5169130;28;20057;-76
2022/09/16 00:33:33;;;;;;;4.03;0.70;;;;;;;13.06;100.00;99777.22;5168575;28;20412;-76
2022/09/16 00:36:15;;;;;;;4.68;0.90;;;;;;;12.88;100.00;99780.88;5172038;28;20353;-76
2022/09/16 00:38:53;;;;;;;2.67;0.90;;;;;;;12.88;100.00;99787.88;5202703;22;20048;-77
2022/09/16 00:41:32;;;;;;;2.97;0.75;;;;;;;12.73;100.00;99786.13;5189820;28;20104;-77
2022/09/16 00:44:05;;;;;;;5.78;1.00;;;;;;;12.70;100.00;99792.41;5183208;28;20025;-78
2022/09/16 00:46:44;;;;;;;2.92;0.90;;;;;;;12.72;100.00;99787.91;5187388;28;20021;-74
2022/09/16 00:49:27;;;;;;;4.47;1.02;;;;;;;12.84;100.00;99795.06;5167034;28;20036;-76
2022/09/16 00:52:03;;;;;;;5.53;0.90;;;;;;;12.73;100.00;99794.84;5167929;28;20076;-77
2022/09/16 00:54:35;;;;;;;3.08;0.65;;;;;;;12.77;100.00;99793.72;5169188;28;20022;-77
2022/09/16 00:57:09;;;;;;;2.67;0.70;;;;;;;12.66;100.00;99788.25;5163983;28;20481;-76
2022/09/16 00:59:46;;;;;;;2.03;0.60;;;;;;;12.65;100.00;99796.22;5168185;28;20491;-76
2022/09/16 01:02:19;;;;;;;2.83;0.60;;;;;;;12.74;100.00;99788.66;5169782;28;20663;-76
2022/09/16 01:05:03;;;;;;;2.00;0.50;;;;;;;12.66;100.00;99790.88;5171100;28;20033;-78
2022/09/16 01:07:40;;;;;;;4.75;0.90;;;;;;;12.70;100.00;99786.31;5164154;28;20018;-76
2022/09/16 01:10:13;;;;;;;3.20;0.90;;;;;;;12.67;100.00;99792.56;5169458;28;20030;-75
2022/09/16 01:12:48;;;;;;;4.40;0.70;;;;;;;12.67;100.00;99791.72;5168983;28;20030;-76
2022/09/16 01:15:24;;;;;;;5.13;0.80;;;;;;;12.61;100.00;99792.91;5170160;28;20033;-77
2022/09/16 01:17:54;;;;;;;;;;;;;;;12.62;100.00;99786.72;5168735;28;20272;-76
2022/09/16 01:20:52;;;;;;;3.93;0.80;;;;;;;12.68;100.00;99783.78;5168663;28;20486;-76
2022/09/16 01:23:57;;;;;;;4.63;0.80;;;;;;;12.71;100.00;99778.38;5169785;28;20295;-76
2022/09/16 01:26:39;;;;;;;5.57;0.98;;;;;;;12.72;100.00;99779.19;5186417;28;20192;-74
2022/09/16 01:29:34;;;;;;;3.58;0.80;;;;;;;12.76;100.00;99780.69;5166688;28;20057;-78
2022/09/16 01:32:10;;;;;;;4.60;0.88;;;;;;;12.68;100.00;99781.16;5165434;28;20032;-76
2022/09/16 01:35:04;;;;;;;3.65;0.77;;;;;;;12.74;100.00;99786.03;5168196;28;20495;-76
2022/09/16 01:38:05;;;;;;;6.40;0.93;;;;;;;12.60;100.00;99785.97;5159770;28;20078;-77
2022/09/16 01:40:38;;;;;;;3.22;0.95;;;;;;;12.59;100.00;99776.44;5165232;28;20484;-76
2022/09/16 01:43:18;;;;;;;4.32;1.08;;;;;;;12.58;100.00;99774.72;5168406;28;20488;-77
2022/09/16 01:46:15;;;;;;;3.85;1.33;;;;;;;12.57;100.00;99780.91;5168071;28;20065;-76
2022/09/16 01:48:58;;;;;;;2.38;0.90;;;;;;;12.50;100.00;99790.03;5152570;28;20030;-77
2022/09/16 01:51:37;;;;;;;5.05;1.25;;;;;;;12.61;100.00;99789.47;5164724;28;20029;-76
2022/09/16 01:54:28;;;;;;;8.93;1.58;;;;;;;12.54;100.00;99786.34;5164116;28;20402;-76
2022/09/16 01:57:09;;;;;;;4.78;1.38;;;;;;;12.54;100.00;99781.09;5162580;28;20037;-77
2022/09/16 01:59:46;;;;;;;3.88;1.27;;;;;;;12.42;100.00;99783.53;5168922;28;20561;-77
2022/09/16 02:02:25;;;;;;;6.43;1.70;;;;;;;12.58;100.00;99779.13;5168136;28;20026;-76
2022/09/16 02:05:02;;;;;;;3.00;1.30;;;;;;;12.52;100.00;99784.72;5170401;28;20411;-75
2022/09/16 02:07:37;;;;;;;6.85;1.17;;;;;;;12.53;100.00;99783.78;5168174;28;20041;-76
2022/09/16 02:10:23;;;;;;;4.28;1.17;;;;;;;12.46;100.00;99775.41;5166633;28;20308;-77
2022/09/16 02:13:01;;;;;;;5.38;1.40;;;;;;;12.52;100.00;99782.97;5167716;28;20065;-77
2022/09/16 02:15:33;;;;;;;6.07;1.40;;;;;;;12.64;100.00;99776.19;5162496;28;20407;-76
2022/09/16 02:18:10;;;;;;;4.60;1.33;;;;;;;12.55;100.00;99767.06;5167620;28;20639;-77
2022/09/16 02:20:45;;;;;;;4.35;1.20;;;;;;;12.59;100.00;99763.31;5166775;28;20032;-77
2022/09/16 02:23:21;;;;;;;;;;;;;;;12.65;100.00;99762.97;5167812;28;20121;-76
2022/09/16 02:25:54;;;;;;;5.68;1.30;;;;;;;12.59;100.00;99759.84;5165786;28;20013;-77
2022/09/16 02:28:29;;;;;;;4.53;1.30;;;;;;;12.63;100.00;99759.59;5167401;28;20125;-77
2022/09/16 02:31:05;;;;;;;6.50;1.40;;;;;;;12.59;100.00;99760.69;5163168;28;20030;-77
2022/09/16 02:33:52;;;;;;;7.00;1.70;;;;;;;12.67;100.00;99757.66;5166308;28;20033;-80
2022/09/16 02:36:25;;;;;;;6.10;1.60;;;;;;;12.68;100.00;99751.47;5166272;28;20030;-77
2022/09/16 02:39:06;;;;;;;7.68;1.58;;;;;;;12.60;100.00;99762.38;5167657;28;20484;-77
2022/09/16 02:41:38;;;;;;;7.05;1.40;;;;;;;12.67;100.00;99755.84;5164257;28;20030;-77
2022/09/16 02:44:09;;;;;;;7.45;1.40;;;;;;;12.70;100.00;99752.22;5168136;28;20042;-77
2022/09/16 02:46:59;;;;;;;4.80;1.25;;;;;;;12.87;100.00;99757.34;5164742;28;20555;-78
2022/09/16 02:49:45;;;;;;;8.02;1.50;;;;;;;12.81;100.00;99760.31;5157741;28;20091;-78
2022/09/16 02:52:39;;;;;;;7.05;1.40;;;;;;;12.76;100.00;99765.81;5167152;28;20053;-77
2022/09/16 02:55:23;;;;;;;5.03;1.10;;;;;;;12.82;100.00;99759.38;5165181;28;20129;-77
2022/09/16 02:57:54;;;;;;;6.65;1.60;;;;;;;12.70;100.00;99760.94;5165789;28;20018;-77
2022/09/16 03:00:25;;;;;;;7.43;1.75;;;;;;;12.82;100.00;99757.59;5168723;28;20060;-79
2022/09/16 03:02:55;;;;;;;8.60;1.40;;;;;;;12.77;100.00;99753.56;5167731;28;20058;-76
2022/09/16 03:05:28;;;;;;;6.53;1.70;;;;;;;12.73;100.00;99755.53;5165702;28;20522;-77
2022/09/16 03:08:02;;;;;;;6.88;1.27;;;;;;;12.70;100.00;99754.84;5161021;28;20034;-78
2022/09/16 03:10:41;;;;;;;4.20;0.95;;;;;;;12.76;100.00;99755.34;5166969;28;20022;-77
2022/09/16 03:13:30;;;;;;;2.80;0.98;;;;;;;12.61;100.00;99750.13;5174661;28;20026;-78
2022/09/16 03:16:21;;;;;;;6.05;1.27;;;;;;;12.64;100.00;99753.41;5163236;28;20092;-78
2022/09/16 03:19:12;;;;;;;5.55;1.33;;;;;;;12.67;100.00;99755.84;5166831;28;20113;-78
2022/09/16 03:21:59;;;;;;;7.80;1.50;;;;;;;12.53;100.00;99753.19;5168097;28;20052;-77
2022/09/16 03:25:05;;;;;;;8.73;1.60;;;;;;;12.55;100.00;99751.31;5162507;28;20524;-77
2022/09/16 03:27:51;;;;;;;5.97;1.48;;;;;;;12.54;100.00;99754.03;5153965;28;20129;-77
2022/09/16 03:30:21;;;;;;;5.32;1.23;;;;;;;12.25;100.00;99758.28;5166210;28;20026;-75
2022/09/16 03:33:08;;;;;;;6.10;1.17;;;;;;;12.43;100.00;99759.88;5169482;28;20040;-76
2022/09/16 03:35:44;;;;;;;4.00;1.08;;;;;;;12.34;100.00;99756.91;5165160;28;20667;-77
2022/09/16 03:38:16;;;;;;;7.38;1.65;;;;;;;12.29;100.00;99754.53;5169792;28;20083;-77
2022/09/16 03:40:47;;;;;;;5.85;1.40;;;;;;;12.39;100.00;99753.13;5171653;28;20042;-76
2022/09/16 03:43:18;;;;;;;6.70;1.33;;;;;;;12.42;100.00;99755.56;5167070;28;20034;-78
2022/09/16 03:45:50;;;;;;;7.65;1.40;;;;;;;12.39;100.00;99754.88;5172444;28;20032;-76
2022/09/16 03:48:20;;;;;;;4.75;1.23;;;;;;;12.38;100.00;99746.19;5168300;28;20026;-76
2022/09/16 03:50:51;;;;;;;7.65;1.42;;;;;;;12.25;100.00;99747.78;5172262;28;20435;-77
2022/09/16 03:53:21;;;;;;;6.53;1.38;;;;;;;12.33;100.00;99753.44;5169359;28;20019;-77
2022/09/16 03:55:51;;;;;;;5.47;1.58;;;;;;;12.20;100.00;99757.69;5172490;28;20028;-77
2022/09/16 03:58:21;;;;;;;5.40;1.20;;;;;;;12.43;100.00;99746.75;5167744;28;20460;-77
2022/09/16 04:00:52;;;;;;;5.13;1.45;;;;;;;12.36;100.00;99747.19;5171625;28;20395;-78
2022/09/16 04:03:23;;;;;;;5.88;1.20;;;;;;;12.25;100.00;99753.03;5169990;28;20030;-78
2022/09/16 04:05:54;;;;;;;7.93;1.83;;;;;;;12.31;100.00;99746.63;5172496;28;20753;-77
2022/09/16 04:08:24;;;;;;;10.07;1.52;;;;;;;12.37;100.00;99748.88;5167756;28;20027;-77
2022/09/16 04:10:55;;;;;;;5.38;1.65;;;;;;;12.38;100.00;99747.94;5170305;28;20022;-77
2022/09/16 04:13:28;;;;;;;8.38;1.80;;;;;;;12.32;100.00;99743.88;5170558;28;20025;-77
2022/09/16 04:16:00;;;;;;;7.75;1.63;;;;;;;12.36;100.00;99742.81;5164973;28;20030;-78
2022/09/16 04:18:31;;;;;;;6.38;1.90;;;;;;;12.35;100.00;99743.75;5168452;28;20385;-77
2022/09/16 04:21:03;;;;;;;5.55;1.35;;;;;;;12.41;100.00;99746.00;5171919;28;20036;-77
2022/09/16 04:23:33;;;;;;;3.42;1.38;;;;;;;12.36;100.00;99750.66;5169591;28;20049;-77
2022/09/16 04:26:04;;;;;;;4.60;1.52;;;;;;;12.36;100.00;99745.44;5166097;28;20451;-76
2022/09/16 04:28:34;;;;;;;4.28;1.52;;;;;;;12.29;100.00;99746.69;5165305;28;20042;-78
2022/09/16 04:31:07;;;;;;;9.07;1.90;;;;;;;12.22;100.00;99742.72;5169591;28;20026;-78
2022/09/16 04:33:38;;;;;;;4.63;1.98;;;;;;;12.29;100.00;99738.81;5169916;28;20065;-77
2022/09/16 04:36:14;;;;;;;6.35;1.60;;;;;;;12.21;100.00;99733.19;5181386;28;20449;-77
2022/09/16 04:38:46;;;;;;;6.10;1.70;;;;;;;12.23;100.00;99733.94;5160990;28;20190;-77
2022/09/16 04:41:19;;;;;;;6.15;1.65;;;;;;;12.22;100.00;99734.88;5159280;28;20034;-77
2022/09/16 04:43:54;;;;;;;6.68;1.70;;;;;;;12.26;100.00;99732.94;5167093;28;20028;-79
2022/09/16 04:46:28;;;;;;;5.95;1.63;;;;;;;12.22;100.00;99724.41;5174542;28;20026;-77
2022/09/16 04:48:59;;;;;;;4.70;1.50;;;;;;;12.29;100.00;99728.34;5164432;28;20178;-79
2022/09/16 04:51:31;;;;;;;8.23;2.17;;;;;;;12.21;100.00;99730.56;5149810;28;20035;-78
2022/09/16 04:54:01;;;;;;;7.97;1.60;;;;;;;12.20;100.00;99728.88;5161425;28;20026;-77
2022/09/16 04:56:32;;;;;;;4.65;1.48;;;;;;;12.07;100.00;99737.47;5160845;28;20146;-76
2022/09/16 04:59:04;;;;;;;5.68;1.77;;;;;;;12.11;100.00;99739.84;5161003;28;20027;-78
2022/09/16 05:01:37;;;;;;;4.03;1.55;;;;;;;12.20;100.00;99734.13;5161605;28;20122;-77
2022/09/16 05:04:09;;;;;;;8.40;1.50;;;;;;;12.23;100.00;99733.94;5168984;28;20392;-77
2022/09/16 05:06:40;;;;;;;6.10;1.85;;;;;;;12.21;100.00;99730.56;5166603;28;20043;-78
2022/09/16 05:09:12;;;;;;;7.75;1.92;;;;;;;12.28;100.00;99736.31;5168181;28;20480;-77
2022/09/16 05:11:42;;;;;;;6.97;1.55;;;;;;;12.36;100.00;99741.94;5169305;28;20072;-78
2022/09/16 05:14:16;;;;;;;7.05;1.65;;;;;;;12.32;100.00;99746.50;5169395;28;20420;-77
2022/09/16 05:16:46;;;;;;;8.25;1.88;;;;;;;12.43;100.00;99738.91;5167678;28;20120;-76
2022/09/16 05:19:17;;;;;;;3.55;1.50;;;;;;;12.42;100.00;99739.84;5166174;28;20401;-78
2022/09/16 05:21:47;;;;;;;4.40;1.60;;;;;;;12.35;100.00;99743.75;5169399;28;20113;-77
2022/09/16 05:24:17;;;;;;;4.90;1.40;;;;;;;12.56;100.00;99742.53;5178157;28;20037;-78
2022/09/16 05:26:48;;;;;;;7.22;1.75;;;;;;;12.61;100.00;99740.47;5164260;28;20534;-77
2022/09/16 05:29:18;;;;;;;6.95;2.08;;;;;;;12.56;100.00;99737.28;5171394;28;20037;-75
2022/09/16 05:31:49;;;;;;;5.68;1.92;;;;;;;12.66;100.00;99738.44;5167724;28;20033;-75
2022/09/16 05:34:22;;;;;;;8.63;1.90;;;;;;;12.55;100.00;99740.84;5167415;28;20028;-75
2022/09/16 05:36:53;;;;;;;5.97;1.40;;;;;;;12.44;100.00;99743.22;5163951;28;20424;-75
2022/09/16 05:39:23;;;;;;;4.43;1.60;;;;;;;12.51;100.00;99749.81;5165010;28;20030;-75
2022/09/16 05:41:56;;;;;;;5.20;1.63;;;;;;;12.55;100.00;99740.84;5166849;28;20036;-75
2022/09/16 05:44:28;;;;;;;6.40;1.65;;;;;;;12.60;100.00;99753.69;5169095;28;20480;-75
2022/09/16 05:46:58;;;;;;;8.45;2.08;;;;;;;12.66;100.00;99750.72;5162641;28;20034;-75
2022/09/16 05:49:28;;;;;;;7.13;1.70;;;;;;;12.85;100.00;99746.09;5171148;28;20522;-75
2022/09/16 05:51:58;;;;;;;5.60;1.70;;;;;;;12.82;100.00;99748.91;5167578;28;20041;-74
2022/09/16 05:54:30;;;;;;;4.82;1.70;;;;;;;12.91;100.00;99739.56;5163309;28;21121;-75
2022/09/16 05:57:00;;;;;;;4.75;1.60;;;;;;;13.00;100.00;99738.19;5162985;28;20522;-74
2022/09/16 05:59:31;;;;;;;6.53;1.55;;;;;;;12.83;100.00;99738.31;5170051;28;20026;-73
2022/09/16 06:02:01;;;;;;;6.63;1.70;;;;;;;12.96;100.00;99751.63;5169477;28;20026;-72
2022/09/16 06:04:31;;;;;;;6.00;1.90;;;;;;;13.15;100.00;99747.78;5168232;28;20596;-72
2022/09/16 06:07:02;;;;;;;5.70;1.35;;;;;;;13.22;100.00;99743.91;5169469;28;20043;-72
2022/09/16 06:09:32;;;;;;;6.68;1.98;;;;;;;13.18;100.00;99724.00;5167243;28;20032;-74
2022/09/16 06:12:03;;;;;;;6.72;1.27;;;;;;;13.21;100.00;99737.78;5168802;28;20109;-71
2022/09/16 06:14:33;;;;;;;6.88;1.48;;;;;;;13.33;100.00;99730.94;5169327;28;20389;-74
2022/09/16 06:17:03;;;;;;;5.57;1.20;;;;;;;13.47;100.00;99723.09;5165400;28;20112;-74
2022/09/16 06:19:34;;;;;;;5.30;1.60;;;;;;;13.38;100.00;99723.66;5166991;28;20034;-74
2022/09/16 06:22:04;;;;;;;4.43;1.20;;;;;;;13.49;100.00;99722.09;5163498;28;20113;-74
2022/09/16 06:24:35;;;;;;;4.35;1.10;;;;;;;13.47;100.00;99723.09;5163818;28;20081;-74
2022/09/16 06:27:05;;;;;;;2.60;1.15;;;;;;;13.29;100.00;99730.31;5164692;28;20407;-75
2022/09/16 06:29:35;;;;;;;2.78;1.20;;;;;;;13.60;100.00;99730.13;5168223;28;20049;-74
2022/09/16 06:32:06;;;;;;;5.00;1.27;;;;;;;13.67;100.00;99730.59;5169656;28;20037;-75
2022/09/16 06:34:36;;;;;;;6.72;1.42;;;;;;;13.76;100.00;99732.66;5169321;28;20019;-75
2022/09/16 06:39:44;;;;;;;5.07;1.20;;;;;;;13.72;100.00;99728.56;5229291;22;20053;-73
2022/09/16 06:42:14;;;;;;;6.82;1.48;;;;;;;13.58;100.00;99725.94;5200271;28;20510;-74
2022/09/16 06:44:44;;;;;;;7.80;1.33;;;;;;;13.62;100.00;99723.03;5205030;28;20483;-74
2022/09/16 06:47:14;;;;;;;3.80;1.05;;;;;;;14.00;100.00;99723.25;5207427;28;20059;-73
2022/09/16 06:49:45;;;;;;;4.82;1.08;;;;;;;14.18;99.06;99716.84;5209346;28;20029;-74
2022/09/16 06:52:16;;;;;;;4.00;0.98;;;;;;;14.44;97.62;99716.03;5209742;28;20029;-73
2022/09/16 06:54:46;;;;;;;2.55;0.98;;;;;;;14.07;98.42;99724.56;5219136;28;20735;-74
2022/09/16 06:57:19;;;;;;;3.70;1.20;;;;;;;13.86;98.97;99715.38;5208876;28;20037;-74
2022/09/16 06:59:49;;;;;;;5.57;1.00;;;;;;;13.98;98.26;99720.75;5207120;28;20487;-73
2022/09/16 07:02:20;;;;;;;3.20;0.90;;;;;;;14.04;98.62;99708.97;5208098;28;20055;-74
2022/09/16 07:04:50;;;;;;;3.95;1.20;;;;;;;14.01;97.42;99724.94;5210274;28;20029;-74
2022/09/16 07:07:20;;;;;;;7.20;1.52;;;;;;;13.73;99.05;99732.88;5206568;28;20033;-74
2022/09/16 07:09:51;;;;;;;8.80;1.10;;;;;;;13.88;98.11;99739.81;5209319;28;20478;-74
2022/09/16 07:12:21;;;;;;;3.13;1.00;;;;;;;14.22;97.78;99731.53;5220867;28;20029;-74
2022/09/16 07:14:52;;;;;;;4.75;0.90;;;;;;;14.68;94.54;99731.06;5215579;28;20037;-74
2022/09/16 07:17:26;;;;;;;2.10;0.73;;;;;;;14.51;93.42;99736.59;5212694;28;20553;-72
2022/09/16 07:19:56;;;;;;;3.85;0.95;;;;;;;14.69;93.67;99729.25;5210247;28;20025;-72
2022/09/16 07:22:30;;;;;;;4.60;0.82;;;;;;;15.04;91.06;99733.88;5214636;28;20040;-72
2022/09/16 07:25:00;;;;;;;2.70;0.70;;;;;;;16.87;85.11;99732.09;5218780;28;20166;-72
2022/09/16 07:27:30;;;;;;;4.82;1.02;;;;;;;17.18;82.30;99718.28;5212433;28;20546;-72
2022/09/16 07:30:01;;;;;;;5.85;0.93;;;;;;;17.05;82.10;99718.38;5211054;28;20021;-72
2022/09/16 07:32:31;;;;;;;5.15;1.00;;;;;;;16.37;84.46;99732.34;5211733;28;20407;-73
2022/09/16 07:35:02;;;;;;;2.95;0.85;;;;;;;15.67;86.79;99743.53;5213942;28;20540;-73
2022/09/16 07:37:33;;;;;;;6.22;0.88;;;;;;;15.74;88.09;99743.97;5208602;28;20021;-72
2022/09/16 07:40:04;;;;;;;3.72;0.90;;;;;;;15.69;87.76;99730.28;5212474;28;20033;-73
2022/09/16 07:42:35;;;;;;;6.55;1.15;;;;;;;16.44;85.24;99741.50;5221896;28;20083;-72
2022/09/16 07:45:05;;;;;;;2.35;0.90;;;;;;;16.30;82.73;99744.25;5214503;28;20029;-72
2022/09/16 07:47:36;;;;;;;11.30;1.50;;;;;;;17.50;78.78;99740.47;5210561;28;20064;-72
2022/09/16 07:50:06;;;;;;;3.65;0.65;;;;;;;17.58;77.95;99743.34;5211420;28;20041;-72
2022/09/16 07:52:37;;;;;;;4.43;0.85;;;;;;;18.36;75.53;99734.47;5213717;28;20507;-72
2022/09/16 07:55:07;;;;;;;4.15;0.90;;;;;;;20.19;70.83;99733.69;5220878;28;20603;-73
2022/09/16 07:57:38;;;;;;;1.75;0.50;;;;;;;20.44;67.45;99727.88;5209565;28;20078;-73
2022/09/16 08:00:09;;;;;;;4.88;0.88;;;;;;;20.21;68.48;99733.56;5206982;28;20037;-73
2022/09/16 08:02:39;;;;;;;3.40;0.80;;;;;;;21.64;65.61;99732.66;5200838;28;20021;-73
2022/09/16 08:05:09;;;;;;;4.22;0.60;;;;;;;21.67;64.50;99732.34;5205693;28;20040;-73
2022/09/16 08:07:40;;;;;;;4.18;0.70;;;;;;;20.51;65.58;99749.41;5209390;28;20040;-73
2022/09/16 08:10:10;;;;;;;4.32;0.80;;;;;;;21.21;63.47;99734.94;5202974;28;20109;-72
2022/09/16 08:12:40;;;;;;;4.15;0.80;;;;;;;21.61;62.85;99739.03;5217816;28;20538;-72
2022/09/16 08:15:11;;;;;;;3.85;0.80;;;;;;;21.19;63.68;99751.03;5213576;28;20053;-72
2022/09/16 08:17:41;;;;;;;3.77;0.90;;;;;;;20.41;65.14;99753.84;5200930;28;20112;-73
2022/09/16 08:20:11;;;;;;;3.58;0.70;;;;;;;18.62;70.07;99749.91;5207315;28;20280;-72
2022/09/16 08:22:41;;;;;;;3.35;0.70;;;;;;;17.92;73.02;99753.84;5211155;28;20036;-72
2022/09/16 08:25:12;;;;;;;3.90;0.90;;;;;;;18.45;72.83;99752.25;5212333;28;20072;-72
2022/09/16 08:27:42;;;;;;;8.10;0.98;;;;;;;19.68;69.02;99738.22;5210611;28;20024;-71
2022/09/16 08:30:13;;;;;;;4.50;0.70;;;;;;;17.85;73.44;99755.28;5210064;28;20037;-71
2022/09/16 08:32:43;;;;;;;4.68;0.98;;;;;;;18.49;72.39;99749.22;5210927;28;20100;-72
2022/09/16 08:35:13;;;;;;;6.47;1.23;;;;;;;18.23;71.49;99747.81;5211178;28;20033;-72
2022/09/16 08:37:44;;;;;;;5.05;0.80;;;;;;;19.74;68.71;99737.66;5210688;28;20022;-71
2022/09/16 08:40:17;;;;;;;5.20;0.80;;;;;;;19.15;68.49;99748.97;5211660;28;20033;-72
2022/09/16 08:43:12;;;;;;;5.78;1.23;;;;;;;20.07;67.29;99744.53;5221183;28;20349;-72
2022/09/16 08:46:24;;;;;;;6.30;0.88;;;;;;;18.44;70.19;99747.91;5209162;28;20112;-72
2022/09/16 08:49:15;;;;;;;6.13;1.17;;;;;;;19.78;67.47;99732.94;5219000;28;20402;-73
2022/09/16 08:51:46;;;;;;;3.45;0.60;;;;;;;20.04;66.31;99734.19;5210292;28;20163;-72
2022/09/16 08:54:38;;;;;;;5.78;1.08;;;;;;;19.84;66.63;99740.38;5209220;28;20116;-72
2022/09/16 08:57:18;;;;;;;3.67;0.88;;;;;;;19.40;67.60;99732.72;5207075;28;20036;-72
2022/09/16 09:00:04;;;;;;;6.10;0.90;;;;;;;18.34;70.62;99733.75;5210152;28;20083;-72
2022/09/16 09:02:34;;;;;;;;;;;;;;;19.06;68.20;99737.34;5207059;28;20030;-72
2022/09/16 09:05:15;;;;;;;7.93;1.20;;;;;;;18.84;67.33;99733.94;5212262;28;19963;-72
2022/09/16 09:08:03;;;;;;;6.95;1.08;;;;;;;18.21;70.99;99751.53;5210499;28;20096;-72
2022/09/16 09:10:44;;;;;;;5.30;0.85;;;;;;;17.99;71.80;99739.16;5208782;28;20549;-73
2022/09/16 09:13:31;;;;;;;3.22;0.95;;;;;;;18.63;69.94;99746.31;5217883;28;20033;-72
2022/09/16 09:16:07;;;;;;;5.75;0.82;;;;;;;18.53;70.78;99739.25;5207185;28;20025;-71
2022/09/16 09:18:46;;;;;;;6.70;1.00;;;;;;;19.12;70.39;99734.16;5219235;28;20504;-72
2022/09/16 09:21:38;;;;;;;4.63;1.00;;;;;;;18.80;68.91;99733.34;5208578;28;20426;-72
2022/09/16 09:24:22;;;;;;;4.82;0.85;;;;;;;18.90;69.69;99729.00;5207661;28;20479;-73
2022/09/16 09:27:27;;;;;;;5.78;0.90;;;;;;;18.70;69.76;99731.59;5208028;28;20036;-73
2022/09/16 09:30:19;;;;;;;8.18;1.17;;;;;;;17.96;69.92;99735.91;5208253;28;20064;-72
2022/09/16 09:33:08;;;;;;;6.30;1.00;;;;;;;16.98;70.97;99727.69;5209403;28;20017;-72
2022/09/16 09:35:46;;;;;;;5.93;1.00;;;;;;;16.97;72.05;99746.31;5206904;28;20021;-72
2022/09/16 09:38:47;;;;;;;3.42;0.80;;;;;;;16.96;72.48;99734.06;5206944;28;20710;-71
2022/09/16 09:41:42;;;;;;;6.10;0.90;;;;;;;16.86;73.23;99733.06;5201842;28;20525;-72
2022/09/16 09:44:24;;;;;;;8.23;1.20;;;;;;;16.92;71.68;99733.44;5213500;28;20198;-71
2022/09/16 09:47:04;;;;;;;10.13;1.17;;;;;;;17.12;69.69;99724.88;5207238;28;20458;-72
2022/09/16 09:49:38;;;;;;;6.22;0.90;;;;;;;17.47;70.14;99725.69;5205389;28;20056;-72
2022/09/16 09:52:22;;;;;;;6.65;0.95;;;;;;;17.54;69.46;99712.84;5210675;28;20055;-72
2022/09/16 09:54:52;;;;;;;6.97;1.13;;;;;;;17.90;68.02;99708.19;5211584;28;20125;-72
2022/09/16 09:57:36;;;;;;;6.95;0.98;;;;;;;17.76;67.00;99711.06;5207165;28;20112;-72
2022/09/16 10:00:17;;;;;;;5.70;0.82;;;;;;;17.84;67.27;99713.09;5205712;28;20030;-72
2022/09/16 10:02:47;;;;;;;8.00;1.38;;;;;;;17.70;66.37;99718.63;5208604;28;20037;-72
2022/09/16 10:05:23;;;;;;;7.00;1.17;;;;;;;18.09;66.71;99700.47;5208967;28;20036;-72
2022/09/16 10:07:57;;;;;;;9.52;1.50;;;;;;;17.69;66.97;99699.28;5209907;28;20455;-72
2022/09/16 10:10:32;;;;;;;5.63;1.08;;;;;;;17.99;66.34;99691.56;5209334;28;20035;-72
2022/09/16 10:13:10;;;;;;;8.80;1.20;;;;;;;18.30;66.12;99697.91;5209585;28;20021;-73
2022/09/16 10:15:40;;;;;;;4.40;0.80;;;;;;;18.35;65.92;99690.47;5209606;28;20103;-72
2022/09/16 10:18:22;;;;;;;6.57;1.00;;;;;;;18.32;66.18;99685.44;5207284;28;20115;-71
2022/09/16 10:21:03;;;;;;;6.60;1.13;;;;;;;18.54;65.68;99682.69;5207904;28;20084;-72
2022/09/16 10:23:35;;;;;;;6.03;1.00;;;;;;;18.77;65.50;99696.53;5205406;28;20029;-73
2022/09/16 10:26:18;;;;;;;9.73;1.58;;;;;;;18.46;64.81;99711.56;5209240;28;20402;-72
2022/09/16 10:28:55;;;;;;;6.40;1.23;;;;;;;18.06;65.09;99686.63;5209499;28;20494;-72
2022/09/16 10:31:37;;;;;;;6.70;1.27;;;;;;;17.70;65.88;99695.69;5207005;28;20026;-72
2022/09/16 10:34:31;;;;;;;7.03;1.05;;;;;;;17.92;66.11;99681.59;5206807;28;20494;-72
2022/09/16 10:37:15;;;;;;;3.47;0.80;;;;;;;18.45;65.66;99684.28;5203087;28;20038;-72
2022/09/16 10:39:51;;;;;;;5.38;0.80;;;;;;;18.50;64.37;99676.81;5213153;28;20024;-72
2022/09/16 10:42:27;;;;;;;6.25;1.05;;;;;;;18.35;63.64;99687.81;5205126;28;20482;-74
2022/09/16 10:45:02;;;;;;;;;;;;;;;18.03;63.66;99693.00;5206380;28;20037;-72
2022/09/16 10:47:34;;;;;;;7.65;1.08;;;;;;;17.70;63.79;99705.41;5207847;28;19920;-74
2022/09/16 10:50:06;;;;;;;7.35;1.05;;;;;;;17.28;70.30;99711.38;5208019;28;20037;-73
2022/09/16 10:52:43;;;;;;;6.97;0.98;;;;;;;17.01;70.33;99705.53;5206601;28;20104;-73
2022/09/16 10:55:26;;;;;;;6.15;1.05;;;;;;;16.69;72.21;99699.16;5206203;28;20037;-73
2022/09/16 10:58:17;;;;;;;4.57;0.77;;;;;;;17.19;71.81;99688.28;5205478;28;20029;-73
2022/09/16 11:00:54;;;;;;;5.25;0.77;;;;;;;17.32;71.32;99679.28;5204573;28;20402;-74
2022/09/16 11:03:43;;;;;;;4.82;1.00;;;;;;;17.34;71.28;99679.22;5208116;28;20502;-74
2022/09/16 11:06:13;;;;;;;4.32;0.82;;;;;;;17.48;70.60;99694.84;5204467;28;20047;-73
2022/09/16 11:08:56;;;;;;;6.13;0.90;;;;;;;17.57;68.71;99681.75;5203678;28;20240;-74
2022/09/16 11:11:59;;;;;;;5.78;1.00;;;;;;;17.53;63.97;99679.47;5207158;28;20797;-73
2022/09/16 11:14:39;;;;;;;4.88;0.70;;;;;;;17.56;63.63;99676.56;5205697;28;20489;-74
2022/09/16 11:17:25;;;;;;;4.70;0.75;;;;;;;17.78;64.33;99666.00;5198688;28;20105;-74
2022/09/16 11:20:16;;;;;;;6.53;0.98;;;;;;;18.00;64.24;99663.34;5202673;28;20036;-73
2022/09/16 11:23:05;;;;;;;5.00;1.00;;;;;;;17.96;63.15;99664.53;5205977;28;20037;-73
2022/09/16 11:25:53;;;;;;;8.70;1.20;;;;;;;18.02;63.68;99654.31;5197668;28;20079;-74
2022/09/16 11:29:09;;;;;;;2.53;0.60;;;;;;;18.41;63.28;99651.13;5209145;28;20051;-73
2022/09/16 11:31:57;;;;;;;7.28;0.90;;;;;;;18.56;63.70;99649.00;5205668;28;20125;-73
2022/09/16 11:34:45;;;;;;;6.47;0.90;;;;;;;18.50;61.78;99658.28;5203173;28;20017;-74
2022/09/16 11:37:42;;;;;;;7.20;0.93;;;;;;;18.55;61.57;99661.38;5207119;28;20025;-74
2022/09/16 11:40:39;;;;;;;4.95;0.90;;;;;;;18.33;61.13;99645.59;5206554;28;20053;-74
2022/09/16 11:43:37;;;;;;;7.53;1.33;;;;;;;18.29;62.35;99643.31;5216425;28;20057;-74
2022/09/16 11:46:20;;;;;;;8.15;1.02;;;;;;;18.35;61.44;99645.47;5204967;28;20091;-73
2022/09/16 11:49:15;;;;;;;6.15;1.15;;;;;;;18.49;62.63;99647.84;5206845;28;20029;-75
2022/09/16 11:51:57;;;;;;;10.27;1.20;;;;;;;18.29;61.98;99646.81;5206068;28;20032;-75
2022/09/16 11:55:05;;;;;;;3.67;0.88;;;;;;;17.81;60.83;99650.72;5205508;28;20031;-74
2022/09/16 11:57:41;;;;;;;5.90;1.15;;;;;;;17.82;61.81;99652.41;5205211;28;20025;-74
2022/09/16 12:00:17;;;;;;;3.30;0.90;;;;;;;17.55;61.61;99657.25;5205303;28;20021;-73
2022/09/16 12:02:55;;;;;;;7.53;1.02;;;;;;;17.44;61.69;99659.03;5203745;28;20033;-74
2022/09/16 12:05:40;;;;;;;5.13;1.00;;;;;;;17.25;59.76;99659.59;5205624;28;20056;-73
2022/09/16 12:08:23;;;;;;;8.67;1.00;;;;;;;17.38;60.20;99641.03;5209479;28;20025;-72
2022/09/16 12:10:58;;;;;;;9.02;1.00;;;;;;;17.56;60.01;99637.81;5214003;28;20390;-73
2022/09/16 12:13:41;;;;;;;10.93;1.20;;;;;;;17.78;59.40;99623.69;5218299;28;20024;-74
2022/09/16 12:16:32;;;;;;;5.03;0.65;;;;;;;17.84;58.92;99639.09;5210551;28;20128;-73